createdAt,value
2022-09-03T00:05:52.256Z,100771.72
2022-09-03T00:08:40.789Z,100772.06
2022-09-03T00:11:13.808Z,100780.06
2022-09-03T00:13:53.747Z,100760.97
2022-09-03T00:16:27.324Z,100766.41
2022-09-03T00:19:03.794Z,100774.19
2022-09-03T00:21:52.880Z,100761.88
2022-09-03T00:24:23.417Z,100759.25
2022-09-03T00:26:56.020Z,100758.56
2022-09-03T00:29:37.104Z,100752.06
2022-09-03T00:32:11.098Z,100753.72
2022-09-03T00:34:48.971Z,100770.78
2022-09-03T00:37:16.745Z,100756.56
2022-09-03T00:39:44.573Z,100756.44
2022-09-03T00:42:27.248Z,100753.53
2022-09-03T00:45:01.133Z,100766.72
2022-09-03T00:47:57.987Z,100765.66
2022-09-03T00:50:31.147Z,100767.19
2022-09-03T00:53:04.042Z,100785.81
2022-09-03T00:55:34.338Z,100778.84
2022-09-03T00:58:21.744Z,100787.94
2022-09-03T01:00:53.251Z,100777.19
2022-09-03T01:03:24.666Z,100786.00
2022-09-03T01:06:01.815Z,100775.06
2022-09-03T01:09:12.394Z,100767.19
2022-09-03T01:11:59.927Z,100761.75
2022-09-03T01:14:37.733Z,100766.31
2022-09-03T01:17:37.602Z,100784.72
2022-09-03T01:20:30.490Z,100784.72
2022-09-03T01:23:22.396Z,100788.97
2022-09-03T01:26:02.158Z,100796.28
2022-09-03T01:28:42.636Z,100796.41
2022-09-03T01:31:27.186Z,100777.25
2022-09-03T01:34:18.463Z,100792.63
2022-09-03T01:37:10.501Z,100829.72
2022-09-03T01:40:07.434Z,100810.47
2022-09-03T01:43:01.359Z,100806.84
2022-09-03T01:45:32.495Z,100826.63
2022-09-03T01:48:27.351Z,100829.72
2022-09-03T01:51:23.839Z,100839.72
2022-09-03T01:54:18.088Z,100839.31
2022-09-03T01:57:35.886Z,100833.78
2022-09-03T02:00:13.460Z,100827.06
2022-09-03T02:02:44.424Z,100814.16
2022-09-03T02:05:14.519Z,100808.72
2022-09-03T02:07:46.863Z,100815.19
2022-09-03T02:10:18.176Z,100813.09
2022-09-03T02:12:55.408Z,100810.47
2022-09-03T02:15:25.817Z,100811.44
2022-09-03T02:17:57.455Z,100821.56
2022-09-03T02:20:28.374Z,100810.47
2022-09-03T02:22:57.924Z,100812.81
2022-09-03T02:25:35.979Z,100812.81
2022-09-03T02:28:06.606Z,100807.84
2022-09-03T02:30:44.080Z,100807.44
2022-09-03T02:33:11.543Z,100821.28
2022-09-03T02:35:40.846Z,100811.66
2022-09-03T02:38:18.061Z,100803.34
2022-09-03T02:40:46.551Z,100795.56
2022-09-03T02:43:20.985Z,100826.63
2022-09-03T02:45:57.843Z,100796.03
2022-09-03T02:48:25.832Z,100796.03
2022-09-03T02:50:53.239Z,100802.19
2022-09-03T02:53:20.814Z,100803.88
2022-09-03T02:55:48.263Z,100816.00
2022-09-03T02:58:15.558Z,100833.09
2022-09-03T03:00:43.122Z,100813.31
2022-09-03T03:03:10.489Z,100816.47
2022-09-03T03:05:46.902Z,100812.97
2022-09-03T03:08:21.356Z,100828.06
2022-09-03T03:10:49.713Z,100834.72
2022-09-03T03:13:17.041Z,100817.91
2022-09-03T03:15:45.095Z,100814.38
2022-09-03T03:18:14.203Z,100809.13
2022-09-03T03:20:42.642Z,100842.06
2022-09-03T03:23:11.013Z,100832.16
2022-09-03T03:25:39.974Z,100844.84
2022-09-03T03:28:08.140Z,100828.56
2022-09-03T03:30:39.993Z,100843.31
2022-09-03T03:33:08.313Z,100824.22
2022-09-03T03:35:36.848Z,100840.25
2022-09-03T03:38:05.231Z,100823.75
2022-09-03T03:40:32.702Z,100817.56
2022-09-03T03:42:59.923Z,100837.22
2022-09-03T03:45:27.110Z,100825.94
2022-09-03T03:47:58.490Z,100827.44
2022-09-03T03:50:26.206Z,100830.06
2022-09-03T03:52:53.449Z,100835.38
2022-09-03T03:55:20.732Z,100824.88
2022-09-03T03:57:47.907Z,100823.38
2022-09-03T04:00:16.064Z,100823.97
2022-09-03T04:02:43.639Z,100797.94
2022-09-03T04:05:11.561Z,100791.31
2022-09-03T04:07:39.071Z,100782.50
2022-09-03T04:10:06.983Z,100779.25
2022-09-03T04:12:34.274Z,100786.09
2022-09-03T04:15:01.870Z,100802.16
2022-09-03T04:17:32.176Z,100795.78
2022-09-03T04:19:59.701Z,100763.94
2022-09-03T04:22:29.848Z,100791.25
2022-09-03T04:24:57.222Z,100793.94
2022-09-03T04:27:24.781Z,100791.19
2022-09-03T04:29:52.091Z,100829.03
2022-09-03T04:32:37.743Z,100813.25
2022-09-03T04:35:05.248Z,100811.59
2022-09-03T04:37:33.515Z,100809.47
2022-09-03T04:40:00.849Z,100828.81
2022-09-03T04:42:28.292Z,100815.13
2022-09-03T04:44:55.477Z,100835.53
2022-09-03T04:47:22.767Z,100830.69
2022-09-03T04:49:49.995Z,100836.63
2022-09-03T04:52:17.441Z,100828.75
2022-09-03T04:54:44.905Z,100844.41
2022-09-03T04:57:12.248Z,100811.19
2022-09-03T04:59:41.286Z,100817.59
2022-09-03T05:02:09.872Z,100819.63
2022-09-03T05:04:37.333Z,100813.75
2022-09-03T05:07:04.731Z,100811.16
2022-09-03T05:09:32.171Z,100817.78
2022-09-03T05:11:59.498Z,100793.97
2022-09-03T05:14:27.060Z,100797.94
2022-09-03T05:16:56.029Z,100813.28
2022-09-03T05:19:23.423Z,100802.06
2022-09-03T05:21:50.716Z,100776.34
2022-09-03T05:24:18.798Z,100769.75
2022-09-03T05:26:45.996Z,100792.13
2022-09-03T05:29:14.499Z,100777.03
2022-09-03T05:31:42.013Z,100805.34
2022-09-03T05:34:10.272Z,100786.22
2022-09-03T05:36:43.609Z,100760.13
2022-09-03T05:39:10.914Z,100761.63
2022-09-03T05:41:38.183Z,100776.94
2022-09-03T05:44:06.180Z,100768.84
2022-09-03T05:46:34.461Z,100764.59
2022-09-03T05:49:03.741Z,100788.22
2022-09-03T05:51:32.488Z,100792.09
2022-09-03T05:54:00.229Z,100766.53
2022-09-03T05:56:30.782Z,100776.31
2022-09-03T05:59:05.803Z,100795.69
2022-09-03T06:01:35.582Z,100802.41
2022-09-03T06:04:14.113Z,100802.22
2022-09-03T06:06:44.341Z,100799.66
2022-09-03T06:09:30.726Z,100797.81
2022-09-03T06:11:58.097Z,100793.72
2022-09-03T06:14:27.030Z,100814.16
2022-09-03T06:16:55.900Z,100800.41
2022-09-03T06:19:23.438Z,100808.72
2022-09-03T06:21:50.756Z,100825.84
2022-09-03T06:24:28.412Z,100821.91
2022-09-03T06:26:57.843Z,100809.38
2022-09-03T06:29:25.283Z,100797.31
2022-09-03T06:31:54.108Z,100807.84
2022-09-03T06:34:22.894Z,100796.25
2022-09-03T06:36:50.795Z,100818.22
2022-09-03T06:39:18.043Z,100808.25
2022-09-03T06:41:48.404Z,100818.03
2022-09-03T06:44:15.795Z,100809.53
2022-09-03T06:46:43.105Z,100786.28
2022-09-03T06:49:11.746Z,100797.28
2022-09-03T06:51:43.466Z,100820.25
2022-09-03T06:54:12.704Z,100799.75
2022-09-03T06:56:41.752Z,100790.75
2022-09-03T06:59:14.713Z,100775.00
2022-09-03T07:01:45.524Z,100793.94
2022-09-03T07:04:16.857Z,100780.84
2022-09-03T07:06:47.365Z,100771.94
2022-09-03T07:09:15.979Z,100779.81
2022-09-03T07:11:47.721Z,100773.41
2022-09-03T07:14:19.863Z,100783.00
2022-09-03T07:16:48.792Z,100759.13
2022-09-03T07:19:16.353Z,100770.09
2022-09-03T07:21:49.199Z,100773.66
2022-09-03T07:24:18.749Z,100779.25
2022-09-03T07:26:47.337Z,100751.66
2022-09-03T07:29:16.166Z,100767.75
2022-09-03T07:31:44.375Z,100786.97
2022-09-03T07:34:13.731Z,100772.56
2022-09-03T07:36:43.385Z,100774.03
2022-09-03T07:39:12.626Z,100770.59
2022-09-03T07:41:45.961Z,100751.22
2022-09-03T07:44:15.531Z,100746.16
2022-09-03T07:46:45.603Z,100751.41
2022-09-03T07:49:13.322Z,100783.50
2022-09-03T07:51:41.097Z,100757.81
2022-09-03T07:54:11.424Z,100740.47
2022-09-03T07:56:41.372Z,100748.81
2022-09-03T07:59:09.328Z,100740.75
2022-09-03T08:01:41.182Z,100752.88
2022-09-03T08:04:09.964Z,100747.94
2022-09-03T08:06:38.570Z,100733.72
2022-09-03T08:09:08.844Z,100743.59
2022-09-03T08:11:41.778Z,100743.00
2022-09-03T08:14:14.245Z,100736.84
2022-09-03T08:16:44.060Z,100722.34
2022-09-03T08:19:13.531Z,100716.53
2022-09-03T08:21:42.419Z,100711.41
2022-09-03T08:24:11.800Z,100737.25
2022-09-03T08:26:46.272Z,100718.47
2022-09-03T08:29:15.058Z,100709.13
2022-09-03T08:31:43.213Z,100700.50
2022-09-03T08:34:12.032Z,100700.34
2022-09-03T08:36:41.878Z,100715.47
2022-09-03T08:39:11.329Z,100703.94
2022-09-03T08:41:44.820Z,100680.75
2022-09-03T08:44:26.386Z,100704.78
2022-09-03T08:46:56.398Z,100688.47
2022-09-03T08:49:47.275Z,100703.22
2022-09-03T08:52:32.655Z,100706.47
2022-09-03T08:55:17.748Z,100728.34
2022-09-03T08:57:49.233Z,100673.25
2022-09-03T09:00:18.331Z,100682.22
2022-09-03T09:03:06.144Z,100677.59
2022-09-03T09:05:48.171Z,100675.31
2022-09-03T09:08:15.537Z,100665.13
2022-09-03T09:10:49.765Z,100671.56
2022-09-03T09:13:37.005Z,100664.81
2022-09-03T09:16:37.203Z,100649.97
2022-09-03T09:19:32.539Z,100645.81
2022-09-03T09:22:05.480Z,100638.88
2022-09-03T09:24:53.587Z,100645.97
2022-09-03T09:27:20.879Z,100636.41
2022-09-03T09:29:50.189Z,100608.06
2022-09-03T09:32:21.772Z,100622.84
2022-09-03T09:34:52.321Z,100631.56
2022-09-03T09:37:20.692Z,100633.69
2022-09-03T09:40:00.014Z,100630.13
2022-09-03T09:42:30.133Z,100626.25
2022-09-03T09:44:57.502Z,100607.94
2022-09-03T09:47:34.225Z,100619.13
2022-09-03T09:50:03.858Z,100623.47
2022-09-03T09:52:31.820Z,100613.84
2022-09-03T09:55:19.572Z,100612.88
2022-09-03T09:57:47.043Z,100603.25
2022-09-03T10:00:18.161Z,100598.50
2022-09-03T10:02:51.363Z,100596.75
2022-09-03T10:05:33.414Z,100594.41
2022-09-03T10:08:04.960Z,100584.72
2022-09-03T10:10:50.216Z,100584.00
2022-09-03T10:13:42.004Z,100585.72
2022-09-03T10:16:21.763Z,100615.00
2022-09-03T10:19:10.507Z,100590.13
2022-09-03T10:22:06.543Z,100598.59
2022-09-03T10:25:08.318Z,100581.06
2022-09-03T10:27:36.626Z,100575.81
2022-09-03T10:30:08.969Z,100581.59
2022-09-03T10:32:58.807Z,100564.09
2022-09-03T10:35:37.074Z,100561.25
2022-09-03T10:38:17.679Z,100561.75
2022-09-03T10:41:05.513Z,100563.41
2022-09-03T10:43:33.343Z,100521.88
2022-09-03T10:46:27.043Z,100543.94
2022-09-03T10:49:10.701Z,100549.34
2022-09-03T10:51:53.188Z,100510.19
2022-09-03T10:54:29.159Z,100525.78
2022-09-03T10:57:20.888Z,100523.78
2022-09-03T11:00:20.302Z,100540.84
2022-09-03T11:03:10.606Z,100541.69
2022-09-03T11:05:45.512Z,100516.88
2022-09-03T11:08:22.195Z,100529.53
2022-09-03T11:11:12.275Z,100546.28
2022-09-03T11:13:47.243Z,100548.31
2022-09-03T11:16:21.314Z,100531.91
2022-09-03T11:19:04.558Z,100533.66
2022-09-03T11:21:34.614Z,100519.38
2022-09-03T11:24:16.328Z,100521.88
2022-09-03T11:26:56.787Z,100502.31
2022-09-03T11:29:57.580Z,100514.16
2022-09-03T11:32:33.440Z,100530.50
2022-09-03T11:35:01.890Z,100543.88
2022-09-03T11:37:31.273Z,100527.59
2022-09-03T11:40:20.228Z,100537.41
2022-09-03T11:42:48.396Z,100535.75
2022-09-03T11:45:27.924Z,100532.91
2022-09-03T11:47:55.227Z,100537.00
2022-09-03T11:50:30.569Z,100539.47
2022-09-03T11:53:10.650Z,100519.09
2022-09-03T11:55:54.925Z,100532.56
2022-09-03T11:58:22.724Z,100520.75
2022-09-03T12:00:55.733Z,100520.72
2022-09-03T12:03:41.791Z,100528.91
2022-09-03T12:06:20.280Z,100523.63
2022-09-03T12:08:53.811Z,100505.66
2022-09-03T12:11:43.718Z,100501.63
2022-09-03T12:14:21.865Z,100506.91
2022-09-03T12:17:15.231Z,100514.72
2022-09-03T12:20:13.840Z,100503.66
2022-09-03T12:22:42.455Z,100500.81
2022-09-03T12:25:15.307Z,100491.47
2022-09-03T12:27:45.928Z,100500.06
2022-09-03T12:30:31.132Z,100492.69
2022-09-03T12:33:11.206Z,100501.69
2022-09-03T12:38:27.711Z,100493.53
2022-09-03T12:43:54.206Z,100469.84
2022-09-03T12:46:33.139Z,100447.00
2022-09-03T12:52:05.784Z,100474.78
2022-09-03T12:54:38.154Z,100467.84
2022-09-03T12:57:05.959Z,100453.97
2022-09-03T12:59:37.521Z,100467.03
2022-09-03T13:02:28.621Z,100453.59
2022-09-03T13:04:56.932Z,100446.63
2022-09-03T13:07:27.701Z,100438.06
2022-09-03T13:10:04.008Z,100442.56
2022-09-03T13:12:43.555Z,100428.66
2022-09-03T13:15:21.298Z,100443.78
2022-09-03T13:18:46.612Z,100457.66
2022-09-03T13:21:32.586Z,100441.31
2022-09-03T13:24:36.802Z,100439.69
2022-09-03T13:27:26.417Z,100453.97
2022-09-03T13:30:28.909Z,100422.50
2022-09-03T13:33:22.603Z,100428.66
2022-09-03T13:36:04.224Z,100433.16
2022-09-03T13:38:52.004Z,100428.25
2022-09-03T13:41:53.587Z,100420.47
2022-09-03T13:44:42.520Z,100418.44
2022-09-03T13:47:19.243Z,100421.72
2022-09-03T13:50:23.948Z,100436.41
2022-09-03T13:52:53.558Z,100412.75
2022-09-03T13:55:51.922Z,100410.31
2022-09-03T13:58:45.527Z,100425.41
2022-09-03T14:01:59.590Z,100420.50
2022-09-03T14:04:57.798Z,100410.69
2022-09-03T14:07:49.427Z,100409.06
2022-09-03T14:10:48.588Z,100391.50
2022-09-03T14:13:51.821Z,100415.56
2022-09-03T14:16:56.767Z,100392.31
2022-09-03T14:19:28.078Z,100400.50
2022-09-03T14:22:25.130Z,100402.09
2022-09-03T14:25:22.443Z,100392.31
2022-09-03T14:27:50.675Z,100393.53
2022-09-03T14:31:02.052Z,100378.00
2022-09-03T14:33:44.625Z,100383.72
2022-09-03T14:36:24.435Z,100374.69
2022-09-03T14:39:26.713Z,100368.59
2022-09-03T14:42:37.525Z,100375.94
2022-09-03T14:45:56.144Z,100369.00
2022-09-03T14:48:49.680Z,100377.53
2022-09-03T14:51:26.131Z,100369.38
2022-09-03T14:54:16.102Z,100356.72
2022-09-03T14:56:50.995Z,100343.25
2022-09-03T14:59:36.547Z,100337.53
2022-09-03T15:02:39.313Z,100364.44
2022-09-03T15:05:12.302Z,100341.59
2022-09-03T15:07:48.594Z,100348.53
2022-09-03T15:10:32.125Z,100339.16
2022-09-03T15:13:09.004Z,100332.19
2022-09-03T15:15:42.647Z,100327.28
2022-09-03T15:18:18.721Z,100302.00
2022-09-03T15:20:53.161Z,100325.63
2022-09-03T15:23:52.265Z,100309.31
2022-09-03T15:26:59.386Z,100331.34
2022-09-03T15:29:51.756Z,100308.09
2022-09-03T15:32:27.725Z,100315.41
2022-09-03T15:34:55.012Z,100325.19
2022-09-03T15:37:28.683Z,100312.53
2022-09-03T15:40:08.435Z,100315.38
2022-09-03T15:42:36.879Z,100301.88
2022-09-03T15:45:21.329Z,100292.91
2022-09-03T15:48:01.750Z,100271.25
2022-09-03T15:50:37.221Z,100313.66
2022-09-03T15:53:26.200Z,100288.38
2022-09-03T15:56:15.136Z,100290.81
2022-09-03T15:59:00.538Z,100295.69
2022-09-03T16:01:48.674Z,100266.34
2022-09-03T16:04:16.125Z,100294.03
2022-09-03T16:07:08.262Z,100288.31
2022-09-03T16:13:05.253Z,100284.19
2022-09-03T16:15:58.780Z,100281.75
2022-09-03T16:18:36.180Z,100284.19
2022-09-03T16:21:10.301Z,100277.63
2022-09-03T16:23:55.503Z,100284.53
2022-09-03T16:26:33.800Z,100293.50
2022-09-03T16:29:14.007Z,100294.66
2022-09-03T16:32:17.560Z,100286.53
2022-09-03T16:35:00.217Z,100286.44
2022-09-03T16:37:46.012Z,100292.53
2022-09-03T16:40:56.875Z,100294.53
2022-09-03T16:43:41.606Z,100303.03
2022-09-03T16:46:09.141Z,100291.19
2022-09-03T16:49:04.360Z,100298.13
2022-09-03T16:51:46.798Z,100320.50
2022-09-03T16:54:42.478Z,100304.94
2022-09-03T16:57:43.692Z,100295.88
2022-09-03T17:00:16.452Z,100303.28
2022-09-03T17:03:02.096Z,100310.59
2022-09-03T17:05:36.293Z,100311.72
2022-09-03T17:08:18.867Z,100307.66
2022-09-03T17:11:01.300Z,100296.66
2022-09-03T17:13:46.632Z,100341.38
2022-09-03T17:16:24.756Z,100316.13
2022-09-03T17:19:00.074Z,100333.19
2022-09-03T17:22:06.167Z,100318.38
2022-09-03T17:24:39.419Z,100328.19
2022-09-03T17:27:21.278Z,100311.84
2022-09-03T17:29:57.874Z,100328.50
2022-09-03T17:32:57.721Z,100309.78
2022-09-03T17:35:38.276Z,100312.56
2022-09-03T17:38:17.985Z,100319.84
2022-09-03T17:41:00.554Z,100319.03
2022-09-03T17:43:39.973Z,100308.81
2022-09-03T17:46:39.451Z,100301.84
2022-09-03T17:49:08.911Z,100310.69
2022-09-03T17:52:00.233Z,100333.06
2022-09-03T17:54:49.813Z,100318.34
2022-09-03T17:57:20.196Z,100314.66
2022-09-03T17:59:56.476Z,100324.75
2022-09-03T18:02:58.720Z,100336.53
2022-09-03T18:05:44.350Z,100330.31
2022-09-03T18:08:22.204Z,100326.63
2022-09-03T18:11:14.606Z,100348.97
2022-09-03T18:14:12.997Z,100333.47
2022-09-03T18:17:15.533Z,100325.31
2022-09-03T18:20:07.118Z,100321.59
2022-09-03T18:23:15.395Z,100336.19
2022-09-03T18:26:05.804Z,100318.19
2022-09-03T18:29:17.702Z,100309.28
2022-09-03T18:32:03.969Z,100352.19
2022-09-03T18:34:55.198Z,100304.28
2022-09-03T18:37:43.600Z,100275.84
2022-09-03T18:40:41.252Z,100283.19
2022-09-03T18:43:48.504Z,100279.94
2022-09-03T18:50:07.652Z,100283.50
2022-09-03T18:53:26.581Z,100260.28
2022-09-03T18:56:57.293Z,100260.28
2022-09-03T18:59:53.170Z,100263.44
2022-09-03T19:02:56.434Z,100267.94
2022-09-03T19:05:54.162Z,100252.91
2022-09-03T19:08:51.448Z,100274.75
2022-09-03T19:11:43.236Z,100271.97
2022-09-03T19:14:44.471Z,100251.97
2022-09-03T19:17:51.305Z,100251.19
2022-09-03T19:20:49.175Z,100282.84
2022-09-03T19:23:37.062Z,100264.91
2022-09-03T19:26:43.328Z,100268.19
2022-09-03T19:30:03.843Z,100273.00
2022-09-03T19:33:23.124Z,100262.72
2022-09-03T19:36:17.967Z,100272.88
2022-09-03T19:39:30.283Z,100265.19
2022-09-03T19:42:19.160Z,100276.53
2022-09-03T19:45:07.819Z,100256.16
2022-09-03T19:48:09.181Z,100256.91
2022-09-03T19:51:01.998Z,100263.03
2022-09-03T19:53:50.508Z,100247.53
2022-09-03T19:56:46.154Z,100244.69
2022-09-03T19:59:39.283Z,100237.69
2022-09-03T20:02:25.175Z,100248.28
2022-09-03T20:05:18.337Z,100236.59
2022-09-03T20:08:08.692Z,100237.41
2022-09-03T20:10:36.918Z,100248.72
2022-09-03T20:13:10.146Z,100250.75
2022-09-03T20:16:01.089Z,100234.13
2022-09-03T20:19:05.100Z,100222.44
2022-09-03T20:21:43.907Z,100215.91
2022-09-03T20:24:21.496Z,100212.72
2022-09-03T20:26:57.992Z,100207.88
2022-09-03T20:29:54.964Z,100222.50
2022-09-03T20:32:47.505Z,100204.63
2022-09-03T20:35:46.564Z,100180.28
2022-09-03T20:38:53.784Z,100179.47
2022-09-03T20:41:26.083Z,100179.88
2022-09-03T20:44:13.195Z,100168.84
2022-09-03T20:46:48.790Z,100165.09
2022-09-03T20:49:53.234Z,100176.94
2022-09-03T20:52:46.021Z,100155.81
2022-09-03T20:55:23.799Z,100170.41
2022-09-03T20:58:06.261Z,100159.09
2022-09-03T21:00:58.135Z,100145.25
2022-09-03T21:03:37.625Z,100154.59
2022-09-03T21:06:20.632Z,100174.50
2022-09-03T21:09:13.041Z,100138.72
2022-09-03T21:11:55.436Z,100153.34
2022-09-03T21:14:38.963Z,100141.59
2022-09-03T21:17:18.538Z,100138.75
2022-09-03T21:20:26.906Z,100137.19
2022-09-03T21:23:23.968Z,100150.63
2022-09-03T21:26:04.486Z,100135.53
2022-09-03T21:28:56.032Z,100106.38
2022-09-03T21:31:32.239Z,100131.56
2022-09-03T21:34:12.061Z,100116.91
2022-09-03T21:36:43.391Z,100120.13
2022-09-03T21:39:20.241Z,100111.19
2022-09-03T21:41:58.142Z,100103.09
2022-09-03T21:44:36.244Z,100112.88
2022-09-03T21:47:09.998Z,100102.22
2022-09-03T21:49:57.483Z,100108.78
2022-09-03T21:52:52.279Z,100091.25
2022-09-03T21:55:46.671Z,100107.53
2022-09-03T21:58:16.793Z,100113.16
2022-09-03T22:00:46.244Z,100098.03
2022-09-03T22:03:14.200Z,100100.50
2022-09-03T22:05:57.516Z,100115.91
2022-09-03T22:08:39.290Z,100093.13
2022-09-03T22:11:16.495Z,100096.28
2022-09-03T22:13:54.536Z,100100.34
2022-09-03T22:16:39.401Z,100081.63
2022-09-03T22:19:09.286Z,100061.34
2022-09-03T22:21:44.494Z,100076.75
2022-09-03T22:24:25.687Z,100080.75
2022-09-03T22:26:58.381Z,100077.53
2022-09-03T22:29:50.328Z,100074.66
2022-09-03T22:32:34.089Z,100066.16
2022-09-03T22:35:16.369Z,100059.56
2022-09-03T22:37:52.193Z,100035.63
2022-09-03T22:40:25.137Z,100066.81
2022-09-03T22:43:11.851Z,100050.66
2022-09-03T22:46:08.346Z,100056.31
2022-09-03T22:48:44.756Z,100059.56
2022-09-03T22:51:13.672Z,100044.91
2022-09-03T22:53:50.119Z,100050.59
2022-09-03T22:56:24.555Z,100055.50
2022-09-03T22:59:02.844Z,100064.59
2022-09-03T23:02:03.773Z,100073.34
2022-09-03T23:04:49.237Z,100064.31
2022-09-03T23:07:54.814Z,100041.53
2022-09-03T23:10:34.277Z,100045.47
2022-09-03T23:13:19.037Z,100059.25
2022-09-03T23:15:56.698Z,100048.69
2022-09-03T23:18:27.363Z,100036.41
2022-09-03T23:21:31.069Z,100030.84
2022-09-03T23:24:16.748Z,100035.69
2022-09-03T23:26:43.897Z,100030.31
2022-09-03T23:29:26.475Z,100030.72
2022-09-03T23:31:57.718Z,100021.38
2022-09-03T23:34:26.091Z,100042.88
2022-09-03T23:40:14.664Z,100039.09
2022-09-03T23:43:03.744Z,100037.91
2022-09-03T23:45:55.724Z,100033.81
2022-09-03T23:48:37.727Z,100034.94
2022-09-03T23:51:35.868Z,100021.16
2022-09-03T23:54:25.221Z,100032.38
2022-09-03T23:57:24.647Z,100031.88
